sensor_id;sensor_type;location;lat;lon;timestamp;temperature;humidity
7216;DHT22;3649;48.798;9.798;2024-03-22T00:00:18;12.40;99.90
7216;DHT22;3649;48.798;9.798;2024-03-22T00:02:44;12.40;99.90
7216;DHT22;3649;48.798;9.798;2024-03-22T00:05:10;12.40;99.90
7216;DHT22;3649;48.798;9.798;2024-03-22T00:07:35;13.40;99.90
7216;DHT22;3649;48.798;9.798;2024-03-22T00:10:03;12.50;99.90
7216;DHT22;3649;48.798;9.798;2024-03-22T00:12:28;12.50;99.90
7216;DHT22;3649;48.798;9.798;2024-03-22T00:14:54;13.00;99.90
7216;DHT22;3649;48.798;9.798;2024-03-22T00:17:21;13.10;99.90
7216;DHT22;3649;48.798;9.798;2024-03-22T00:19:47;12.30;99.90
7216;DHT22;3649;48.798;9.798;2024-03-22T00:22:12;12.30;99.90
7216;DHT22;3649;48.798;9.798;2024-03-22T00:24:38;12.20;99.90
7216;DHT22;3649;48.798;9.798;2024-03-22T00:27:07;12.20;99.90
7216;DHT22;3649;48.798;9.798;2024-03-22T00:29:33;12.20;99.90
7216;DHT22;3649;48.798;9.798;2024-03-22T00:31:58;12.20;99.90
7216;DHT22;3649;48.798;9.798;2024-03-22T00:34:25;12.20;99.90
7216;DHT22;3649;48.798;9.798;2024-03-22T00:36:51;12.10;99.90
7216;DHT22;3649;48.798;9.798;2024-03-22T00:39:17;12.20;99.90
7216;DHT22;3649;48.798;9.798;2024-03-22T00:41:46;12.20;99.90
7216;DHT22;3649;48.798;9.798;2024-03-22T00:44:11;12.20;99.90
7216;DHT22;3649;48.798;9.798;2024-03-22T00:46:38;12.10;99.90
7216;DHT22;3649;48.798;9.798;2024-03-22T00:49:04;12.20;99.90
7216;DHT22;3649;48.798;9.798;2024-03-22T00:51:29;12.10;99.90
7216;DHT22;3649;48.798;9.798;2024-03-22T00:53:55;12.10;99.90
7216;DHT22;3649;48.798;9.798;2024-03-22T00:56:22;12.10;99.90
7216;DHT22;3649;48.798;9.798;2024-03-22T00:58:48;12.10;99.90
7216;DHT22;3649;48.798;9.798;2024-03-22T01:01:13;12.00;99.90
7216;DHT22;3649;48.798;9.798;2024-03-22T01:03:39;12.10;99.90
7216;DHT22;3649;48.798;9.798;2024-03-22T01:06:05;12.00;99.90
7216;DHT22;3649;48.798;9.798;2024-03-22T01:08:33;11.90;99.90
7216;DHT22;3649;48.798;9.798;2024-03-22T01:10:59;11.90;99.90
7216;DHT22;3649;48.798;9.798;2024-03-22T01:13:25;12.00;99.90
7216;DHT22;3649;48.798;9.798;2024-03-22T01:15:51;11.90;99.90
7216;DHT22;3649;48.798;9.798;2024-03-22T01:18:17;12.60;99.90
7216;DHT22;3649;48.798;9.798;2024-03-22T01:20:43;11.90;99.90
7216;DHT22;3649;48.798;9.798;2024-03-22T01:23:09;11.80;99.90
7216;DHT22;3649;48.798;9.798;2024-03-22T01:25:35;11.80;99.90
7216;DHT22;3649;48.798;9.798;2024-03-22T01:28:01;12.00;99.90
7216;DHT22;3649;48.798;9.798;2024-03-22T01:30:27;11.80;99.90
7216;DHT22;3649;48.798;9.798;2024-03-22T01:32:55;11.80;99.90
7216;DHT22;3649;48.798;9.798;2024-03-22T01:35:21;11.80;99.90
7216;DHT22;3649;48.798;9.798;2024-03-22T01:37:47;11.70;99.90
7216;DHT22;3649;48.798;9.798;2024-03-22T01:40:13;11.70;99.90
7216;DHT22;3649;48.798;9.798;2024-03-22T01:42:39;11.70;99.90
7216;DHT22;3649;48.798;9.798;2024-03-22T01:45:05;11.70;99.90
7216;DHT22;3649;48.798;9.798;2024-03-22T01:47:31;11.70;99.90
7216;DHT22;3649;48.798;9.798;2024-03-22T01:49:57;11.60;99.90
7216;DHT22;3649;48.798;9.798;2024-03-22T01:52:23;11.60;99.90
7216;DHT22;3649;48.798;9.798;2024-03-22T01:54:50;11.50;99.90
7216;DHT22;3649;48.798;9.798;2024-03-22T01:57:22;11.50;99.90
7216;DHT22;3649;48.798;9.798;2024-03-22T01:59:49;11.50;99.90
7216;DHT22;3649;48.798;9.798;2024-03-22T02:02:17;11.40;99.90
7216;DHT22;3649;48.798;9.798;2024-03-22T02:04:44;11.40;99.90
7216;DHT22;3649;48.798;9.798;2024-03-22T02:07:09;11.30;99.90
7216;DHT22;3649;48.798;9.798;2024-03-22T02:09:35;11.30;99.90
7216;DHT22;3649;48.798;9.798;2024-03-22T02:12:03;11.40;99.90
7216;DHT22;3649;48.798;9.798;2024-03-22T02:14:28;11.30;99.90
7216;DHT22;3649;48.798;9.798;2024-03-22T02:16:54;11.50;99.90
7216;DHT22;3649;48.798;9.798;2024-03-22T02:19:20;11.30;99.90
7216;DHT22;3649;48.798;9.798;2024-03-22T02:21:46;11.30;99.90
7216;DHT22;3649;48.798;9.798;2024-03-22T02:24:12;11.30;99.90
7216;DHT22;3649;48.798;9.798;2024-03-22T02:26:38;11.30;99.90
7216;DHT22;3649;48.798;9.798;2024-03-22T02:29:04;11.20;99.90
7216;DHT22;3649;48.798;9.798;2024-03-22T02:31:30;11.30;99.90
7216;DHT22;3649;48.798;9.798;2024-03-22T02:33:58;11.30;99.90
7216;DHT22;3649;48.798;9.798;2024-03-22T02:36:24;11.30;99.90
7216;DHT22;3649;48.798;9.798;2024-03-22T02:38:49;11.20;99.90
7216;DHT22;3649;48.798;9.798;2024-03-22T02:41:15;11.20;99.90
7216;DHT22;3649;48.798;9.798;2024-03-22T02:43:41;11.30;99.90
7216;DHT22;3649;48.798;9.798;2024-03-22T02:46:07;11.20;99.90
7216;DHT22;3649;48.798;9.798;2024-03-22T02:48:33;11.30;99.90
7216;DHT22;3649;48.798;9.798;2024-03-22T02:50:59;11.40;99.90
7216;DHT22;3649;48.798;9.798;2024-03-22T02:53:24;11.30;99.90
7216;DHT22;3649;48.798;9.798;2024-03-22T02:55:50;11.20;99.90
7216;DHT22;3649;48.798;9.798;2024-03-22T02:58:18;11.20;99.90
7216;DHT22;3649;48.798;9.798;2024-03-22T03:00:44;11.10;99.90
7216;DHT22;3649;48.798;9.798;2024-03-22T03:03:10;11.10;99.90
7216;DHT22;3649;48.798;9.798;2024-03-22T03:05:36;11.00;99.90
7216;DHT22;3649;48.798;9.798;2024-03-22T03:08:01;10.90;99.90
7216;DHT22;3649;48.798;9.798;2024-03-22T03:10:29;10.90;99.90
7216;DHT22;3649;48.798;9.798;2024-03-22T03:12:55;10.80;99.90
7216;DHT22;3649;48.798;9.798;2024-03-22T03:15:21;11.20;99.90
7216;DHT22;3649;48.798;9.798;2024-03-22T03:17:47;10.80;99.90
7216;DHT22;3649;48.798;9.798;2024-03-22T03:20:13;10.80;99.90
7216;DHT22;3649;48.798;9.798;2024-03-22T03:22:40;10.70;99.90
7216;DHT22;3649;48.798;9.798;2024-03-22T03:25:06;10.70;99.90
7216;DHT22;3649;48.798;9.798;2024-03-22T03:27:32;10.80;99.90
7216;DHT22;3649;48.798;9.798;2024-03-22T03:29:58;10.80;99.90
7216;DHT22;3649;48.798;9.798;2024-03-22T03:32:24;10.80;99.90
7216;DHT22;3649;48.798;9.798;2024-03-22T03:34:51;10.70;99.90
7216;DHT22;3649;48.798;9.798;2024-03-22T03:37:17;10.80;99.90
7216;DHT22;3649;48.798;9.798;2024-03-22T03:39:42;10.70;99.90
7216;DHT22;3649;48.798;9.798;2024-03-22T03:42:09;10.70;99.90
7216;DHT22;3649;48.798;9.798;2024-03-22T03:44:35;10.70;99.90
7216;DHT22;3649;48.798;9.798;2024-03-22T03:47:01;10.70;99.90
7216;DHT22;3649;48.798;9.798;2024-03-22T03:49:27;10.70;99.90
7216;DHT22;3649;48.798;9.798;2024-03-22T03:51:53;10.60;99.90
7216;DHT22;3649;48.798;9.798;2024-03-22T03:54:19;11.40;99.90
7216;DHT22;3649;48.798;9.798;2024-03-22T03:56:45;11.70;99.90
7216;DHT22;3649;48.798;9.798;2024-03-22T03:59:11;10.60;99.90
7216;DHT22;3649;48.798;9.798;2024-03-22T04:01:37;10.50;99.90
7216;DHT22;3649;48.798;9.798;2024-03-22T04:04:03;10.50;99.90
7216;DHT22;3649;48.798;9.798;2024-03-22T04:06:29;10.50;99.90
7216;DHT22;3649;48.798;9.798;2024-03-22T04:08:55;10.60;99.90
7216;DHT22;3649;48.798;9.798;2024-03-22T04:11:21;10.60;99.90
7216;DHT22;3649;48.798;9.798;2024-03-22T04:13:47;10.60;99.90
7216;DHT22;3649;48.798;9.798;2024-03-22T04:16:13;10.60;99.90
7216;DHT22;3649;48.798;9.798;2024-03-22T04:18:39;10.60;99.90
7216;DHT22;3649;48.798;9.798;2024-03-22T04:21:05;10.50;99.90
7216;DHT22;3649;48.798;9.798;2024-03-22T04:23:31;10.50;99.90
7216;DHT22;3649;48.798;9.798;2024-03-22T04:26:00;10.70;99.90
7216;DHT22;3649;48.798;9.798;2024-03-22T04:28:27;10.60;99.90
7216;DHT22;3649;48.798;9.798;2024-03-22T04:31:04;11.30;99.90
7216;DHT22;3649;48.798;9.798;2024-03-22T04:33:31;10.30;99.90
7216;DHT22;3649;48.798;9.798;2024-03-22T04:35:58;10.60;99.90
7216;DHT22;3649;48.798;9.798;2024-03-22T04:38:28;10.40;99.90
7216;DHT22;3649;48.798;9.798;2024-03-22T04:40:54;10.40;99.90
7216;DHT22;3649;48.798;9.798;2024-03-22T04:43:21;10.30;99.90
7216;DHT22;3649;48.798;9.798;2024-03-22T04:45:48;10.30;99.90
7216;DHT22;3649;48.798;9.798;2024-03-22T04:48:16;10.30;99.90
7216;DHT22;3649;48.798;9.798;2024-03-22T04:50:42;10.30;99.90
7216;DHT22;3649;48.798;9.798;2024-03-22T04:53:08;10.30;99.90
7216;DHT22;3649;48.798;9.798;2024-03-22T04:55:34;10.20;99.90
7216;DHT22;3649;48.798;9.798;2024-03-22T04:57:59;10.10;99.90
7216;DHT22;3649;48.798;9.798;2024-03-22T05:00:26;10.10;99.90
7216;DHT22;3649;48.798;9.798;2024-03-22T05:02:53;10.10;99.90
7216;DHT22;3649;48.798;9.798;2024-03-22T05:05:18;10.10;99.90
7216;DHT22;3649;48.798;9.798;2024-03-22T05:07:44;10.20;99.90
7216;DHT22;3649;48.798;9.798;2024-03-22T05:10:11;10.20;99.90
7216;DHT22;3649;48.798;9.798;2024-03-22T05:12:37;10.20;99.90
7216;DHT22;3649;48.798;9.798;2024-03-22T05:15:03;10.10;99.90
7216;DHT22;3649;48.798;9.798;2024-03-22T05:17:30;10.10;99.90
7216;DHT22;3649;48.798;9.798;2024-03-22T05:20:00;10.10;99.90
7216;DHT22;3649;48.798;9.798;2024-03-22T05:22:27;10.20;99.90
7216;DHT22;3649;48.798;9.798;2024-03-22T05:24:53;10.00;99.90
7216;DHT22;3649;48.798;9.798;2024-03-22T05:27:19;10.10;99.90
7216;DHT22;3649;48.798;9.798;2024-03-22T05:29:45;10.20;99.90
7216;DHT22;3649;48.798;9.798;2024-03-22T05:32:11;10.10;99.90
7216;DHT22;3649;48.798;9.798;2024-03-22T05:34:37;10.10;99.90
7216;DHT22;3649;48.798;9.798;2024-03-22T05:37:03;10.10;99.90
7216;DHT22;3649;48.798;9.798;2024-03-22T05:39:29;10.20;99.90
7216;DHT22;3649;48.798;9.798;2024-03-22T05:41:55;10.10;99.90
7216;DHT22;3649;48.798;9.798;2024-03-22T05:44:23;10.20;99.90
7216;DHT22;3649;48.798;9.798;2024-03-22T05:46:49;9.90;99.90
7216;DHT22;3649;48.798;9.798;2024-03-22T05:49:16;10.10;99.90
7216;DHT22;3649;48.798;9.798;2024-03-22T05:51:42;10.20;99.90
7216;DHT22;3649;48.798;9.798;2024-03-22T05:54:08;10.10;99.90
7216;DHT22;3649;48.798;9.798;2024-03-22T05:56:34;10.10;99.90
7216;DHT22;3649;48.798;9.798;2024-03-22T05:58:59;10.10;99.90
7216;DHT22;3649;48.798;9.798;2024-03-22T06:01:25;10.10;99.90
7216;DHT22;3649;48.798;9.798;2024-03-22T06:03:51;10.00;99.90
7216;DHT22;3649;48.798;9.798;2024-03-22T06:06:18;10.00;99.90
7216;DHT22;3649;48.798;9.798;2024-03-22T06:08:44;10.00;99.90
7216;DHT22;3649;48.798;9.798;2024-03-22T06:11:11;10.00;99.90
7216;DHT22;3649;48.798;9.798;2024-03-22T06:13:37;10.10;99.90
7216;DHT22;3649;48.798;9.798;2024-03-22T06:16:03;10.10;99.90
7216;DHT22;3649;48.798;9.798;2024-03-22T06:18:29;10.20;99.90
7216;DHT22;3649;48.798;9.798;2024-03-22T06:20:55;10.30;99.90
7216;DHT22;3649;48.798;9.798;2024-03-22T06:23:21;10.30;99.90
7216;DHT22;3649;48.798;9.798;2024-03-22T06:25:54;10.40;99.90
7216;DHT22;3649;48.798;9.798;2024-03-22T06:28:22;10.50;99.90
7216;DHT22;3649;48.798;9.798;2024-03-22T06:30:48;10.40;99.90
7216;DHT22;3649;48.798;9.798;2024-03-22T06:33:14;10.40;99.90
7216;DHT22;3649;48.798;9.798;2024-03-22T06:35:41;10.40;99.90
7216;DHT22;3649;48.798;9.798;2024-03-22T06:38:07;10.40;99.90
7216;DHT22;3649;48.798;9.798;2024-03-22T06:40:34;10.50;99.90
7216;DHT22;3649;48.798;9.798;2024-03-22T06:43:00;12.00;99.90
7216;DHT22;3649;48.798;9.798;2024-03-22T06:45:26;11.00;99.90
7216;DHT22;3649;48.798;9.798;2024-03-22T06:47:52;10.80;99.90
7216;DHT22;3649;48.798;9.798;2024-03-22T06:50:18;10.80;99.90
7216;DHT22;3649;48.798;9.798;2024-03-22T06:52:44;10.90;99.90
7216;DHT22;3649;48.798;9.798;2024-03-22T06:55:10;11.00;99.90
7216;DHT22;3649;48.798;9.798;2024-03-22T06:57:39;11.30;99.90
7216;DHT22;3649;48.798;9.798;2024-03-22T07:00:05;11.10;99.90
7216;DHT22;3649;48.798;9.798;2024-03-22T07:02:31;11.10;99.90
7216;DHT22;3649;48.798;9.798;2024-03-22T07:04:57;11.20;99.90
7216;DHT22;3649;48.798;9.798;2024-03-22T07:07:23;11.30;99.90
7216;DHT22;3649;48.798;9.798;2024-03-22T07:09:49;11.30;99.90
7216;DHT22;3649;48.798;9.798;2024-03-22T07:12:15;11.30;99.90
7216;DHT22;3649;48.798;9.798;2024-03-22T07:14:41;11.40;99.90
7216;DHT22;3649;48.798;9.798;2024-03-22T07:17:07;11.50;99.90
7216;DHT22;3649;48.798;9.798;2024-03-22T07:19:33;11.60;99.90
7216;DHT22;3649;48.798;9.798;2024-03-22T07:22:00;11.60;99.90
7216;DHT22;3649;48.798;9.798;2024-03-22T07:24:26;11.60;99.90
7216;DHT22;3649;48.798;9.798;2024-03-22T07:26:52;11.70;99.90
7216;DHT22;3649;48.798;9.798;2024-03-22T07:29:18;12.70;99.90
7216;DHT22;3649;48.798;9.798;2024-03-22T07:31:45;12.00;99.90
7216;DHT22;3649;48.798;9.798;2024-03-22T07:34:11;12.20;99.90
7216;DHT22;3649;48.798;9.798;2024-03-22T07:36:38;12.30;99.90
7216;DHT22;3649;48.798;9.798;2024-03-22T07:39:04;12.50;99.90
7216;DHT22;3649;48.798;9.798;2024-03-22T07:41:34;12.70;99.90
7216;DHT22;3649;48.798;9.798;2024-03-22T07:44:01;12.80;99.90
7216;DHT22;3649;48.798;9.798;2024-03-22T07:46:27;12.80;99.90
7216;DHT22;3649;48.798;9.798;2024-03-22T07:48:53;13.00;99.90
7216;DHT22;3649;48.798;9.798;2024-03-22T07:51:20;13.10;99.90
7216;DHT22;3649;48.798;9.798;2024-03-22T07:53:46;13.30;99.90
7216;DHT22;3649;48.798;9.798;2024-03-22T07:56:12;13.30;99.90
7216;DHT22;3649;48.798;9.798;2024-03-22T07:58:41;13.50;99.90
7216;DHT22;3649;48.798;9.798;2024-03-22T08:01:07;15.00;99.90
7216;DHT22;3649;48.798;9.798;2024-03-22T08:03:32;13.70;99.90
7216;DHT22;3649;48.798;9.798;2024-03-22T08:05:58;13.90;99.90
7216;DHT22;3649;48.798;9.798;2024-03-22T08:08:24;14.20;99.90
7216;DHT22;3649;48.798;9.798;2024-03-22T08:10:51;14.20;99.90
7216;DHT22;3649;48.798;9.798;2024-03-22T08:13:17;14.30;99.90
7216;DHT22;3649;48.798;9.798;2024-03-22T08:15:43;14.50;99.90
7216;DHT22;3649;48.798;9.798;2024-03-22T08:18:11;14.60;99.90
7216;DHT22;3649;48.798;9.798;2024-03-22T08:20:37;14.70;99.90
7216;DHT22;3649;48.798;9.798;2024-03-22T08:23:05;14.80;99.90
7216;DHT22;3649;48.798;9.798;2024-03-22T08:25:31;14.90;99.90
7216;DHT22;3649;48.798;9.798;2024-03-22T08:27:57;15.00;99.90
7216;DHT22;3649;48.798;9.798;2024-03-22T08:30:24;15.10;99.90
7216;DHT22;3649;48.798;9.798;2024-03-22T08:32:52;15.20;99.90
7216;DHT22;3649;48.798;9.798;2024-03-22T08:35:18;15.20;99.90
7216;DHT22;3649;48.798;9.798;2024-03-22T08:37:43;15.30;99.90
7216;DHT22;3649;48.798;9.798;2024-03-22T08:40:10;15.40;99.90
7216;DHT22;3649;48.798;9.798;2024-03-22T08:42:36;15.40;99.90
7216;DHT22;3649;48.798;9.798;2024-03-22T08:45:02;15.50;99.90
7216;DHT22;3649;48.798;9.798;2024-03-22T08:47:30;15.60;99.90
7216;DHT22;3649;48.798;9.798;2024-03-22T08:49:56;15.70;99.90
7216;DHT22;3649;48.798;9.798;2024-03-22T08:52:23;15.70;99.90
7216;DHT22;3649;48.798;9.798;2024-03-22T08:54:53;15.80;99.90
7216;DHT22;3649;48.798;9.798;2024-03-22T08:57:19;15.90;99.90
7216;DHT22;3649;48.798;9.798;2024-03-22T08:59:46;16.00;99.90
7216;DHT22;3649;48.798;9.798;2024-03-22T09:02:12;17.20;99.90
7216;DHT22;3649;48.798;9.798;2024-03-22T09:04:38;16.10;99.90
7216;DHT22;3649;48.798;9.798;2024-03-22T09:07:05;16.20;99.90
7216;DHT22;3649;48.798;9.798;2024-03-22T09:09:30;16.30;99.90
7216;DHT22;3649;48.798;9.798;2024-03-22T09:11:56;16.30;99.90
7216;DHT22;3649;48.798;9.798;2024-03-22T09:14:22;16.30;99.90
7216;DHT22;3649;48.798;9.798;2024-03-22T09:16:48;16.40;99.90
7216;DHT22;3649;48.798;9.798;2024-03-22T09:19:14;16.50;99.90
7216;DHT22;3649;48.798;9.798;2024-03-22T09:21:40;16.50;99.90
7216;DHT22;3649;48.798;9.798;2024-03-22T09:24:06;17.00;99.90
7216;DHT22;3649;48.798;9.798;2024-03-22T09:26:32;16.70;99.90
7216;DHT22;3649;48.798;9.798;2024-03-22T09:28:59;16.70;99.90
7216;DHT22;3649;48.798;9.798;2024-03-22T09:31:24;16.70;99.90
7216;DHT22;3649;48.798;9.798;2024-03-22T09:33:51;16.80;99.90
7216;DHT22;3649;48.798;9.798;2024-03-22T09:36:17;16.90;99.90
7216;DHT22;3649;48.798;9.798;2024-03-22T09:38:42;16.90;99.90
7216;DHT22;3649;48.798;9.798;2024-03-22T09:41:08;17.80;99.90
7216;DHT22;3649;48.798;9.798;2024-03-22T09:43:34;16.90;99.90
7216;DHT22;3649;48.798;9.798;2024-03-22T09:46:01;17.00;99.90
7216;DHT22;3649;48.798;9.798;2024-03-22T09:48:29;16.90;99.90
7216;DHT22;3649;48.798;9.798;2024-03-22T09:50:55;16.90;99.90
7216;DHT22;3649;48.798;9.798;2024-03-22T09:53:22;16.90;99.90
7216;DHT22;3649;48.798;9.798;2024-03-22T09:55:49;16.90;99.90
7216;DHT22;3649;48.798;9.798;2024-03-22T09:58:15;16.90;99.90
7216;DHT22;3649;48.798;9.798;2024-03-22T10:00:45;17.00;99.90
7216;DHT22;3649;48.798;9.798;2024-03-22T10:03:11;17.10;99.90
7216;DHT22;3649;48.798;9.798;2024-03-22T10:05:37;17.00;99.90
7216;DHT22;3649;48.798;9.798;2024-03-22T10:08:06;17.00;99.90
7216;DHT22;3649;48.798;9.798;2024-03-22T10:10:33;17.00;99.90
7216;DHT22;3649;48.798;9.798;2024-03-22T10:13:03;17.00;99.90
7216;DHT22;3649;48.798;9.798;2024-03-22T10:15:32;17.10;99.90
7216;DHT22;3649;48.798;9.798;2024-03-22T10:17:58;17.00;99.90
7216;DHT22;3649;48.798;9.798;2024-03-22T10:20:24;17.00;99.90
7216;DHT22;3649;48.798;9.798;2024-03-22T10:22:59;17.00;99.90
7216;DHT22;3649;48.798;9.798;2024-03-22T10:25:29;17.00;99.90
7216;DHT22;3649;48.798;9.798;2024-03-22T10:27:55;17.00;99.90
7216;DHT22;3649;48.798;9.798;2024-03-22T10:30:24;17.20;99.90
7216;DHT22;3649;48.798;9.798;2024-03-22T10:32:50;17.20;99.90
7216;DHT22;3649;48.798;9.798;2024-03-22T10:35:16;17.30;99.90
7216;DHT22;3649;48.798;9.798;2024-03-22T10:37:42;17.30;99.90
7216;DHT22;3649;48.798;9.798;2024-03-22T10:40:09;17.30;99.90
7216;DHT22;3649;48.798;9.798;2024-03-22T10:42:39;17.30;99.90
7216;DHT22;3649;48.798;9.798;2024-03-22T10:45:07;17.30;99.90
7216;DHT22;3649;48.798;9.798;2024-03-22T10:47:35;17.40;99.90
7216;DHT22;3649;48.798;9.798;2024-03-22T10:50:07;17.40;99.90
7216;DHT22;3649;48.798;9.798;2024-03-22T10:52:47;17.40;99.90
7216;DHT22;3649;48.798;9.798;2024-03-22T10:55:21;17.50;99.90
7216;DHT22;3649;48.798;9.798;2024-03-22T10:57:48;17.60;99.90
7216;DHT22;3649;48.798;9.798;2024-03-22T11:00:14;17.50;99.90
7216;DHT22;3649;48.798;9.798;2024-03-22T11:02:43;17.60;99.90
7216;DHT22;3649;48.798;9.798;2024-03-22T11:05:17;17.60;99.90
7216;DHT22;3649;48.798;9.798;2024-03-22T11:07:44;17.50;99.90
7216;DHT22;3649;48.798;9.798;2024-03-22T11:10:11;17.50;99.90
7216;DHT22;3649;48.798;9.798;2024-03-22T11:12:41;17.60;99.90
7216;DHT22;3649;48.798;9.798;2024-03-22T11:15:10;17.50;99.90
7216;DHT22;3649;48.798;9.798;2024-03-22T11:17:38;17.60;99.90
7216;DHT22;3649;48.798;9.798;2024-03-22T11:20:04;17.60;99.90
7216;DHT22;3649;48.798;9.798;2024-03-22T11:22:31;17.60;99.90
7216;DHT22;3649;48.798;9.798;2024-03-22T11:24:57;17.60;99.90
7216;DHT22;3649;48.798;9.798;2024-03-22T11:27:23;17.60;99.90
7216;DHT22;3649;48.798;9.798;2024-03-22T11:29:49;17.70;99.90
7216;DHT22;3649;48.798;9.798;2024-03-22T11:32:17;17.60;99.90
7216;DHT22;3649;48.798;9.798;2024-03-22T11:34:43;17.60;99.90
7216;DHT22;3649;48.798;9.798;2024-03-22T11:37:10;17.60;99.90
7216;DHT22;3649;48.798;9.798;2024-03-22T11:39:37;17.60;99.90
7216;DHT22;3649;48.798;9.798;2024-03-22T11:42:07;17.50;99.90
7216;DHT22;3649;48.798;9.798;2024-03-22T11:44:34;17.50;99.90
7216;DHT22;3649;48.798;9.798;2024-03-22T11:47:02;18.20;99.90
7216;DHT22;3649;48.798;9.798;2024-03-22T11:49:29;17.80;99.90
7216;DHT22;3649;48.798;9.798;2024-03-22T11:51:58;17.80;99.90
7216;DHT22;3649;48.798;9.798;2024-03-22T11:54:24;16.90;99.80
7216;DHT22;3649;48.798;9.798;2024-03-22T11:56:50;17.80;99.80
7216;DHT22;3649;48.798;9.798;2024-03-22T11:59:19;17.80;99.90
7216;DHT22;3649;48.798;9.798;2024-03-22T12:01:46;18.00;99.90
7216;DHT22;3649;48.798;9.798;2024-03-22T12:04:13;17.90;99.90
7216;DHT22;3649;48.798;9.798;2024-03-22T12:06:44;17.90;99.90
7216;DHT22;3649;48.798;9.798;2024-03-22T12:09:13;17.90;99.90
7216;DHT22;3649;48.798;9.798;2024-03-22T12:11:40;17.90;99.90
7216;DHT22;3649;48.798;9.798;2024-03-22T12:14:06;17.90;99.90
7216;DHT22;3649;48.798;9.798;2024-03-22T12:16:32;17.90;99.90
7216;DHT22;3649;48.798;9.798;2024-03-22T12:18:58;17.90;99.90
7216;DHT22;3649;48.798;9.798;2024-03-22T12:21:25;17.90;99.90
7216;DHT22;3649;48.798;9.798;2024-03-22T12:23:51;17.90;99.90
7216;DHT22;3649;48.798;9.798;2024-03-22T12:26:17;18.00;99.70
7216;DHT22;3649;48.798;9.798;2024-03-22T12:28:42;18.00;99.90
7216;DHT22;3649;48.798;9.798;2024-03-22T12:31:09;18.00;99.90
7216;DHT22;3649;48.798;9.798;2024-03-22T12:33:38;18.00;99.90
7216;DHT22;3649;48.798;9.798;2024-03-22T12:36:04;18.00;99.90
7216;DHT22;3649;48.798;9.798;2024-03-22T12:38:30;18.00;99.90
7216;DHT22;3649;48.798;9.798;2024-03-22T12:40:56;18.00;99.90
7216;DHT22;3649;48.798;9.798;2024-03-22T12:43:22;18.10;99.90
7216;DHT22;3649;48.798;9.798;2024-03-22T12:45:48;18.20;99.90
7216;DHT22;3649;48.798;9.798;2024-03-22T12:48:14;18.10;99.90
7216;DHT22;3649;48.798;9.798;2024-03-22T12:50:40;18.20;99.70
7216;DHT22;3649;48.798;9.798;2024-03-22T12:53:06;18.10;99.90
7216;DHT22;3649;48.798;9.798;2024-03-22T12:55:32;18.10;99.90
7216;DHT22;3649;48.798;9.798;2024-03-22T12:57:58;18.10;99.00
7216;DHT22;3649;48.798;9.798;2024-03-22T13:00:24;18.20;99.30
7216;DHT22;3649;48.798;9.798;2024-03-22T13:02:51;18.10;99.10
7216;DHT22;3649;48.798;9.798;2024-03-22T13:05:16;18.30;98.50
7216;DHT22;3649;48.798;9.798;2024-03-22T13:07:42;18.30;99.00
7216;DHT22;3649;48.798;9.798;2024-03-22T13:10:09;18.30;99.20
7216;DHT22;3649;48.798;9.798;2024-03-22T13:12:35;18.30;98.80
7216;DHT22;3649;48.798;9.798;2024-03-22T13:15:02;18.30;99.10
7216;DHT22;3649;48.798;9.798;2024-03-22T13:17:28;18.30;98.90
7216;DHT22;3649;48.798;9.798;2024-03-22T13:19:54;18.30;99.20
7216;DHT22;3649;48.798;9.798;2024-03-22T13:22:20;18.30;99.40
7216;DHT22;3649;48.798;9.798;2024-03-22T13:24:46;18.40;98.70
7216;DHT22;3649;48.798;9.798;2024-03-22T13:27:13;18.50;98.60
7216;DHT22;3649;48.798;9.798;2024-03-22T13:29:40;18.70;98.90
7216;DHT22;3649;48.798;9.798;2024-03-22T13:32:06;18.60;99.20
7216;DHT22;3649;48.798;9.798;2024-03-22T13:34:38;18.50;99.20
7216;DHT22;3649;48.798;9.798;2024-03-22T13:37:04;18.60;99.00
7216;DHT22;3649;48.798;9.798;2024-03-22T13:39:30;18.60;98.40
7216;DHT22;3649;48.798;9.798;2024-03-22T13:41:57;18.60;98.60
7216;DHT22;3649;48.798;9.798;2024-03-22T13:44:23;18.60;98.20
7216;DHT22;3649;48.798;9.798;2024-03-22T13:46:52;18.70;97.50
7216;DHT22;3649;48.798;9.798;2024-03-22T13:49:19;18.60;97.50
7216;DHT22;3649;48.798;9.798;2024-03-22T13:51:49;18.90;97.70
7216;DHT22;3649;48.798;9.798;2024-03-22T13:54:15;18.90;98.30
7216;DHT22;3649;48.798;9.798;2024-03-22T13:56:42;18.90;97.30
7216;DHT22;3649;48.798;9.798;2024-03-22T13:59:08;18.90;97.10
7216;DHT22;3649;48.798;9.798;2024-03-22T14:01:35;19.00;97.10
7216;DHT22;3649;48.798;9.798;2024-03-22T14:04:05;18.90;97.60
7216;DHT22;3649;48.798;9.798;2024-03-22T14:06:31;18.90;97.90
7216;DHT22;3649;48.798;9.798;2024-03-22T14:08:58;18.90;97.30
7216;DHT22;3649;48.798;9.798;2024-03-22T14:11:28;18.90;97.00
7216;DHT22;3649;48.798;9.798;2024-03-22T14:13:59;19.00;96.90
7216;DHT22;3649;48.798;9.798;2024-03-22T14:16:25;19.00;97.30
7216;DHT22;3649;48.798;9.798;2024-03-22T14:18:52;17.50;97.10
7216;DHT22;3649;48.798;9.798;2024-03-22T14:21:19;19.90;97.80
7216;DHT22;3649;48.798;9.798;2024-03-22T14:23:49;19.40;97.80
7216;DHT22;3649;48.798;9.798;2024-03-22T14:26:16;18.90;98.00
7216;DHT22;3649;48.798;9.798;2024-03-22T14:28:42;18.80;97.80
7216;DHT22;3649;48.798;9.798;2024-03-22T14:31:11;18.80;98.20
7216;DHT22;3649;48.798;9.798;2024-03-22T14:33:38;18.70;98.30
7216;DHT22;3649;48.798;9.798;2024-03-22T14:36:06;18.80;98.10
7216;DHT22;3649;48.798;9.798;2024-03-22T14:38:33;18.80;98.40
7216;DHT22;3649;48.798;9.798;2024-03-22T14:40:59;18.70;98.50
7216;DHT22;3649;48.798;9.798;2024-03-22T14:43:26;18.90;98.30
7216;DHT22;3649;48.798;9.798;2024-03-22T14:45:53;18.80;97.60
7216;DHT22;3649;48.798;9.798;2024-03-22T14:48:23;18.90;98.20
7216;DHT22;3649;48.798;9.798;2024-03-22T14:50:50;18.80;98.40
7216;DHT22;3649;48.798;9.798;2024-03-22T14:53:22;18.80;98.50
7216;DHT22;3649;48.798;9.798;2024-03-22T14:55:59;18.80;98.40
7216;DHT22;3649;48.798;9.798;2024-03-22T14:58:29;18.70;97.80
7216;DHT22;3649;48.798;9.798;2024-03-22T15:01:01;18.80;97.80
7216;DHT22;3649;48.798;9.798;2024-03-22T15:03:28;18.80;98.20
7216;DHT22;3649;48.798;9.798;2024-03-22T15:05:55;18.80;98.50
7216;DHT22;3649;48.798;9.798;2024-03-22T15:08:21;18.70;98.60
7216;DHT22;3649;48.798;9.798;2024-03-22T15:10:48;18.70;99.00
7216;DHT22;3649;48.798;9.798;2024-03-22T15:13:16;18.60;99.00
7216;DHT22;3649;48.798;9.798;2024-03-22T15:15:42;18.60;99.00
7216;DHT22;3649;48.798;9.798;2024-03-22T15:18:09;18.60;99.20
7216;DHT22;3649;48.798;9.798;2024-03-22T15:20:35;18.50;99.30
7216;DHT22;3649;48.798;9.798;2024-03-22T15:23:02;18.40;99.40
7216;DHT22;3649;48.798;9.798;2024-03-22T15:25:29;18.40;98.90
7216;DHT22;3649;48.798;9.798;2024-03-22T15:27:55;18.50;98.70
7216;DHT22;3649;48.798;9.798;2024-03-22T15:30:21;18.60;98.50
7216;DHT22;3649;48.798;9.798;2024-03-22T15:32:47;18.60;99.10
7216;DHT22;3649;48.798;9.798;2024-03-22T15:35:13;18.50;99.20
7216;DHT22;3649;48.798;9.798;2024-03-22T15:37:39;18.50;98.90
7216;DHT22;3649;48.798;9.798;2024-03-22T15:40:07;18.40;98.80
7216;DHT22;3649;48.798;9.798;2024-03-22T15:42:34;18.60;98.90
7216;DHT22;3649;48.798;9.798;2024-03-22T15:45:00;18.60;98.70
7216;DHT22;3649;48.798;9.798;2024-03-22T15:47:31;18.70;98.60
7216;DHT22;3649;48.798;9.798;2024-03-22T15:49:58;18.70;98.70
7216;DHT22;3649;48.798;9.798;2024-03-22T15:52:24;18.70;99.20
7216;DHT22;3649;48.798;9.798;2024-03-22T15:54:50;18.70;99.00
7216;DHT22;3649;48.798;9.798;2024-03-22T15:57:18;18.60;99.20